createdAt,value
2018-05-26T00:00:45.920Z,19.37
2018-05-26T00:06:40.873Z,22.61
2018-05-26T00:12:35.867Z,19.86
2018-05-26T00:18:30.860Z,22.75
2018-05-26T00:24:25.883Z,23.51
2018-05-26T00:30:20.904Z,24.04
2018-05-26T00:36:15.962Z,23.02
2018-05-26T00:42:10.897Z,19.49
2018-05-26T00:48:05.912Z,20.65
2018-05-26T00:54:00.921Z,19.88
2018-05-26T00:59:55.916Z,17.65
2018-05-26T01:05:50.911Z,21.4
2018-05-26T01:11:45.925Z,20.86
2018-05-26T01:17:40.911Z,22.25
2018-05-26T01:23:35.956Z,21.15
2018-05-26T01:29:30.934Z,25.72
2018-05-26T01:35:25.912Z,21.78
2018-05-26T01:41:20.948Z,20.69
2018-05-26T01:47:15.946Z,23.3
2018-05-26T01:53:10.951Z,24.75
2018-05-26T01:59:05.958Z,24.06
2018-05-26T02:05:00.985Z,20.73
2018-05-26T02:10:55.961Z,24.95
2018-05-26T02:16:50.955Z,25.55
2018-05-26T02:22:46.047Z,21.89
2018-05-26T02:28:40.955Z,25.23
2018-05-26T02:34:35.955Z,22.65
2018-05-26T02:40:30.959Z,22.1
2018-05-26T02:46:26.094Z,28.8
2018-05-26T02:52:20.961Z,27.97
2018-05-26T02:58:15.999Z,21.32
2018-05-26T03:04:10.989Z,25.57
2018-05-26T03:10:05.981Z,27.32
2018-05-26T03:16:01.015Z,27.95
2018-05-26T03:21:55.994Z,26.33
2018-05-26T03:27:50.986Z,35.39
2018-05-26T03:33:46.013Z,31.38
2018-05-26T03:39:41.007Z,35.4
2018-05-26T03:45:36.016Z,31.66
2018-05-26T03:51:30.981Z,30.7
2018-05-26T03:57:26.012Z,25.93
2018-05-26T04:03:21.037Z,27.17
2018-05-26T04:09:16.031Z,28.05
2018-05-26T04:15:11.091Z,32.85
2018-05-26T04:21:06.073Z,30.15
2018-05-26T04:27:01.043Z,27.01
2018-05-26T04:32:56.041Z,31.64
2018-05-26T04:38:51.039Z,28.66
2018-05-26T04:44:46.049Z,29.09
2018-05-26T04:50:41.025Z,32.17
2018-05-26T04:56:36.082Z,27.95
2018-05-26T05:02:31.091Z,31.57
2018-05-26T05:08:26.073Z,33.24
2018-05-26T05:14:21.054Z,30.98
2018-05-26T05:20:16.073Z,33.03
2018-05-26T05:26:11.065Z,27
2018-05-26T05:32:06.072Z,32.83
2018-05-26T05:38:01.075Z,32.74
2018-05-26T05:43:56.117Z,32.34
2018-05-26T05:49:51.111Z,30.31
2018-05-26T05:55:46.137Z,30.32
2018-05-26T06:01:41.068Z,32.46
2018-05-26T06:07:37.222Z,29.41
2018-05-26T06:13:31.089Z,35.08
2018-05-26T06:19:26.083Z,32.81
2018-05-26T06:25:21.122Z,35.2
2018-05-26T06:31:16.137Z,35.85
2018-05-26T06:37:11.109Z,34.61
2018-05-26T06:43:06.149Z,31.94
2018-05-26T06:49:01.106Z,40.23
2018-05-26T06:54:56.158Z,37.43
2018-05-26T07:00:51.131Z,34.7
2018-05-26T07:06:46.121Z,32.39
2018-05-26T07:12:41.200Z,30.65
2018-05-26T07:18:36.130Z,29.86
2018-05-26T07:24:31.152Z,30.45
2018-05-26T07:30:26.154Z,29.62
2018-05-26T07:36:21.192Z,26.09
2018-05-26T07:42:16.226Z,21.08
2018-05-26T07:48:11.250Z,26.27
2018-05-26T07:54:06.161Z,24.47
2018-05-26T08:00:01.204Z,20.94
2018-05-26T08:05:56.181Z,21.26
2018-05-26T08:11:51.209Z,18.89
2018-05-26T08:17:46.188Z,19.62
2018-05-26T08:23:41.164Z,20.11
2018-05-26T08:29:36.285Z,23.67
2018-05-26T08:35:31.203Z,22.8
2018-05-26T08:41:26.287Z,24.8
2018-05-26T08:47:21.244Z,27.65
2018-05-26T08:53:16.227Z,22.51
2018-05-26T08:59:11.225Z,25.84
2018-05-26T09:05:06.251Z,26.82
2018-05-26T09:11:01.275Z,22.47
2018-05-26T09:16:56.228Z,23.37
2018-05-26T09:22:51.270Z,22.76
2018-05-26T09:28:46.237Z,23.69
2018-05-26T09:34:41.836Z,20.4
2018-05-26T09:40:36.249Z,21.01
2018-05-26T09:46:31.248Z,20.65
2018-05-26T09:52:26.256Z,21.94
2018-05-26T09:58:21.264Z,16.14
2018-05-26T10:04:16.279Z,22.13
2018-05-26T10:10:11.282Z,16.55
2018-05-26T10:16:06.275Z,17.83
2018-05-26T10:22:01.354Z,17.08
2018-05-26T10:27:56.285Z,16.98
2018-05-26T10:33:51.310Z,9.57
2018-05-26T10:39:46.315Z,17.32
2018-05-26T10:45:41.357Z,15.37
2018-05-26T10:51:36.308Z,12.53
2018-05-26T10:57:31.306Z,10.8
2018-05-26T11:03:26.315Z,12.16
2018-05-26T11:09:21.328Z,8.97
2018-05-26T11:15:16.332Z,8.36
2018-05-26T11:21:11.337Z,8.33
2018-05-26T11:27:06.317Z,12.46
2018-05-26T11:33:01.339Z,13.81
2018-05-26T11:38:56.350Z,8.37
2018-05-26T11:44:51.393Z,12.16
2018-05-26T11:50:46.387Z,9.31
2018-05-26T11:56:41.375Z,8.74
2018-05-26T12:02:36.416Z,12.22
2018-05-26T12:08:31.356Z,8.05
2018-05-26T12:14:26.353Z,11.39
2018-05-26T12:20:21.390Z,11.39
2018-05-26T12:26:16.394Z,9.34
2018-05-26T12:32:11.419Z,10.82
2018-05-26T12:38:06.398Z,11.06
2018-05-26T12:44:01.399Z,12.77
2018-05-26T12:49:56.414Z,9.9
2018-05-26T12:55:51.403Z,10.09
2018-05-26T13:01:46.383Z,10.13
2018-05-26T13:07:41.444Z,9.48
2018-05-26T13:13:36.404Z,7.14
2018-05-26T13:19:31.423Z,11.54
2018-05-26T13:25:26.492Z,6.53
2018-05-26T13:31:21.443Z,11.35
2018-05-26T13:37:16.505Z,7.14
2018-05-26T13:43:11.444Z,8.54
2018-05-26T13:49:06.470Z,7.8
2018-05-26T13:55:01.478Z,8.25
2018-05-26T14:00:56.449Z,12.15
2018-05-26T14:06:51.455Z,9.47
2018-05-26T14:12:46.511Z,8.61
2018-05-26T14:18:41.505Z,11.63
2018-05-26T14:24:36.504Z,9.99
2018-05-26T14:30:31.569Z,11.54
2018-05-26T14:36:26.530Z,7.57
2018-05-26T14:42:21.515Z,7.57
2018-05-26T14:48:16.497Z,7.58
2018-05-26T14:54:11.486Z,7.85
2018-05-26T15:00:06.483Z,7.71
2018-05-26T15:06:01.530Z,7.68
2018-05-26T15:11:56.552Z,7.29
2018-05-26T15:17:51.495Z,6.94
2018-05-26T15:23:46.501Z,8.03
2018-05-26T15:29:41.533Z,7.35
2018-05-26T15:35:36.521Z,8.73
2018-05-26T15:41:31.536Z,8.57
2018-05-26T15:47:26.939Z,7.71
2018-05-26T15:53:21.558Z,8.98
2018-05-26T15:59:16.578Z,6.9
2018-05-26T16:05:11.687Z,9.69
2018-05-26T16:11:06.597Z,9.1
2018-05-26T16:17:01.575Z,10.08
2018-05-26T16:22:56.559Z,9.27
2018-05-26T16:28:51.596Z,6.63
2018-05-26T16:34:46.607Z,12.62
2018-05-26T16:40:41.598Z,9.51
2018-05-26T16:46:36.573Z,9.21
2018-05-26T16:52:31.627Z,9.12
2018-05-26T16:58:26.609Z,9.15
2018-05-26T17:04:21.620Z,7.54
2018-05-26T17:10:16.651Z,10.18
2018-05-26T17:16:11.599Z,8.09
2018-05-26T17:22:06.640Z,11.48
2018-05-26T17:28:01.673Z,10.69
2018-05-26T17:33:56.633Z,13.09
2018-05-26T17:39:51.628Z,10.33
2018-05-26T17:45:46.653Z,12.13
2018-05-26T17:51:41.627Z,10.4
2018-05-26T17:57:36.626Z,13.14
2018-05-26T18:03:31.654Z,12.85
2018-05-26T18:09:26.656Z,11.99
2018-05-26T18:15:21.702Z,15.04
2018-05-26T18:21:16.680Z,14.74
2018-05-26T18:27:11.715Z,11.9
2018-05-26T18:33:06.666Z,15.26
2018-05-26T18:39:01.731Z,14.37
2018-05-26T18:44:56.660Z,11.66
2018-05-26T18:50:51.683Z,11.91
2018-05-26T18:56:46.684Z,16.73
2018-05-26T19:02:41.700Z,14.72
2018-05-26T19:08:36.745Z,16.24
2018-05-26T19:14:31.789Z,15.04
2018-05-26T19:20:26.711Z,11.6
2018-05-26T19:26:21.723Z,12.49
2018-05-26T19:32:16.693Z,13.03
2018-05-26T19:38:11.701Z,11.94
2018-05-26T19:44:06.759Z,12.27
2018-05-26T19:50:01.802Z,14.87
2018-05-26T19:55:56.729Z,12.79
2018-05-26T20:01:51.723Z,9.93
2018-05-26T20:07:46.757Z,12.95
2018-05-26T20:13:41.781Z,13.1
2018-05-26T20:19:36.749Z,12.33
2018-05-26T20:25:31.750Z,11.7
2018-05-26T20:31:26.732Z,12.49
2018-05-26T20:37:21.752Z,10.78
2018-05-26T20:43:16.789Z,12.4
2018-05-26T20:49:11.787Z,13.32
2018-05-26T20:55:06.771Z,13.86
2018-05-26T21:01:01.751Z,15.83
2018-05-26T21:06:56.851Z,15.49
2018-05-26T21:12:51.765Z,13.12
2018-05-26T21:18:46.818Z,16.65
2018-05-26T21:24:41.777Z,13.72
2018-05-26T21:30:36.770Z,16.17
2018-05-26T21:36:31.784Z,15.29
2018-05-26T21:42:26.790Z,11.88
2018-05-26T21:48:21.903Z,17.2
2018-05-26T21:54:16.802Z,13.42
2018-05-26T22:00:11.952Z,15.26
2018-05-26T22:06:06.921Z,16.83
2018-05-26T22:12:01.858Z,14.84
2018-05-26T22:17:56.833Z,17.81
2018-05-26T22:23:51.843Z,15.74
2018-05-26T22:29:46.852Z,16.23
2018-05-26T22:35:41.936Z,17.46
2018-05-26T22:41:36.860Z,17.86
2018-05-26T22:47:31.888Z,16.03
2018-05-26T22:53:26.880Z,17.31
2018-05-26T22:59:21.866Z,17.03
2018-05-26T23:05:16.852Z,18.19
2018-05-26T23:11:11.852Z,16.48
2018-05-26T23:17:06.885Z,17.46
2018-05-26T23:23:01.858Z,17.8
2018-05-26T23:28:56.946Z,19.94
2018-05-26T23:34:51.911Z,16.75
2018-05-26T23:40:46.925Z,18.67
2018-05-26T23:46:41.905Z,19.32
2018-05-26T23:52:36.875Z,19.82
2018-05-26T23:58:31.887Z,17.37
